Lulaton, Georgia
Current Conditions -  °F | °C
As of 4:35 PM on Thursday 23 Oct 2014 (Local Time) from KAYS Reporting Station
Clear Clear  
Wind Chill: 75°   Ceiling: Unl
Heat Index: 75°   Visibility: 10mi
Dew Point: 47°   Wind: 0mph
Humidity: 36%   Direction: NA
Pressure: 30"   Gusts: NA
Location:  31.1753°N, 81.969°W
Report Text: KAYS 232035Z AUTO 00000KT 10SM CLR 24/08 A3000 RMK AO2 T02410081
Loading
Personal Weather Stations






























Interactive Weather Map
Tropical Storm Tracking
New forecast layout! Learn more

10-Day Weather Forecast

Advertisements
Track Severe Weather on mobile